Centre Hospitalier Heliport

FR-0029 · Allier, Auvergne-Rhône-Alpes, 法国

METAR的历史 FR-0029 · Centre Hospitalier Heliport

下面你可以看到过去几天的METARs。 选择年份以浏览从2007年开始的旧METAR。

2024年7月22日

时间 代码 天气 温度 能见度 天花板 METAR/SPECI
18:00
V
24 °C 10 km+ - 330° 330° 7 kt METAR LFLV 221600Z AUTO 33007KT 300V030 9999 FEW039 24/15 Q1021
17:30
V
24 °C 10 km+ - 310° 310° 6 kt METAR LFLV 221530Z AUTO 31006KT 270V360 9999 FEW041 24/15 Q1021
17:00
V
24 °C 10 km+ - 330° 330° 6 kt METAR LFLV 221500Z AUTO 33006KT 290V010 9999 SCT039 SCT052 24/15 Q1021
16:30
V
24 °C 10 km+ - 330° 330° 6 kt METAR LFLV 221430Z AUTO 33006KT 290V020 9999 FEW038 24/15 Q1021
16:00
V
24 °C 10 km+ 5.200 ft Var Var 5 kt METAR LFLV 221400Z AUTO VRB05KT 9999 SCT036 SCT042 BKN052 24/15 Q1022
15:30
V
24 °C 10 km+ 11.000 ft 290° 290° 6 kt METAR LFLV 221330Z AUTO 29006KT 240V010 9999 FEW036 OVC110 24/16 Q1022
15:00
V
23 °C 10 km+ 3.500 ft 330° 330° 8 kt METAR LFLV 221300Z AUTO 33008KT 290V010 9999 BKN035 BKN042 BKN052 23/15 Q1022
14:30
V
22 °C 10 km+ 3.200 ft 350° 350° 6 kt METAR LFLV 221230Z AUTO 35006KT 310V020 9999 BKN032 BKN040 OVC050 22/15 Q1022
14:00
V
23 °C 10 km+ 5.200 ft 330° 330° 5 kt METAR LFLV 221200Z AUTO 33005KT 260V050 9999 SCT030 BKN052 23/15 Q1022
13:30
V
22 °C 10 km+ 4.200 ft Var Var 3 kt METAR LFLV 221130Z AUTO VRB03KT 9999 SCT030 BKN042 BKN050 22/15 Q1022
13:00
V
22 °C 10 km+ 3.300 ft 310° 310° 4 kt METAR LFLV 221100Z AUTO 31004KT 210V010 9999 BKN033 BKN039 BKN047 22/15 Q1022
12:30
M
22 °C 10 km+ 3.000 ft 350° 350° 3 kt METAR LFLV 221030Z AUTO 35003KT 300V040 9999 BKN030 BKN035 BKN048 22/15 Q1022
12:00
M
21 °C 10 km+ 2.600 ft 310° 310° 4 kt METAR LFLV 221000Z AUTO 31004KT 250V030 9999 BKN026 OVC047 21/15 Q1022
11:30
V
21 °C 10 km+ 4.400 ft 310° 310° 3 kt METAR LFLV 220930Z AUTO 31003KT 280V030 9999 SCT027 OVC044 21/15 Q1022
11:00
V
20 °C 10 km+ 4.100 ft 360° 360° 4 kt METAR LFLV 220900Z AUTO 36004KT 300V040 9999 OVC041 20/15 Q1022
10:30
V
20 °C 10 km+ 3.800 ft Var Var 3 kt METAR LFLV 220830Z AUTO VRB03KT 9999 OVC038 20/14 Q1021
10:00
V
19 °C 10 km+ 3.500 ft Var Var 3 kt METAR LFLV 220800Z AUTO VRB03KT 9999 OVC035 19/14 Q1021
09:30
V
19 °C 10 km+ 3.400 ft 310° 310° 3 kt METAR LFLV 220730Z AUTO 31003KT 230V010 9999 OVC034 19/15 Q1021
09:00
V
19 °C 10 km+ 3.300 ft 320° 320° 3 kt METAR LFLV 220700Z AUTO 32003KT 290V360 9999 OVC033 19/15 Q1021
08:30
V
19 °C 10 km+ 3.500 ft 320° 320° 4 kt METAR LFLV 220630Z AUTO 32004KT 260V010 9999 OVC035 19/14 Q1021
08:00
V
19 °C 10 km+ - 300° 300° 3 kt METAR LFLV 220600Z AUTO 30003KT 260V340 9999 FEW056 19/15 Q1021

2024年7月21日

时间 代码 天气 温度 能见度 天花板 METAR/SPECI
20:00
V
22 °C 10 km+ 7.800 ft 290° 290° 4 kt METAR LFLV 211800Z AUTO 29004KT 230V350 9999 FEW052/// BKN078/// ///TCU 22/17 Q1015
19:30
V
23 °C 10 km+ - Var Var 4 kt METAR LFLV 211730Z AUTO VRB04KT 9999 FEW030 SCT058 23/17 Q1014
19:00
V
23 °C 10 km+ 12.000 ft 310° 310° 5 kt METAR LFLV 211700Z AUTO 31005KT 270V350 9999 FEW028 BKN120 BKN240 23/17 Q1014
18:30
V
23 °C 10 km+ - 360° 360° 3 kt METAR LFLV 211630Z AUTO 36003KT 310V050 9999 FEW033 SCT110 23/18 Q1014
18:00
V
23 °C 10 km+ - 360° 360° 4 kt METAR LFLV 211600Z AUTO 36004KT 300V050 CAVOK 23/18 Q1014
17:30
V
23 °C 10 km+ - 320° 320° 5 kt METAR LFLV 211530Z AUTO 32005KT 270V020 9999 ///CB 23/17 Q1014
17:00
V
21 °C 10 km+ 8.200 ft 350° 350° 5 kt METAR LFLV 211500Z AUTO 35005KT 310V020 9999 FEW035/// OVC082/// //////TCU 21/18 Q1014
16:30
V
21 °C 10 km+ 7.200 ft 010° 010° 8 kt METAR LFLV 211430Z AUTO 01008KT 330V030 9999 FEW030/// SCT040/// BKN072/// ///CB 21/18 Q1014
16:00
V
23 °C 10 km+ 3.200 ft 360° 360° 6 kt METAR LFLV 211400Z AUTO 36006KT 300V030 9999 BKN032/// BKN042/// OVC110/// ///CB 23/17 Q1013
15:30
V
24 °C 10 km+ 8.400 ft 310° 310° 6 kt METAR LFLV 211330Z AUTO 31006KT 260V360 9999 FEW035/// BKN084/// OVC110/// ///CB 24/17 Q1013
15:00
V
24 °C 10 km+ 8.000 ft 310° 310° 6 kt METAR LFLV 211300Z AUTO 31006KT 240V010 9999 SCT034/// BKN080/// ///CB 24/16 Q1012
14:30
V
24 °C 10 km+ 5.600 ft 310° 310° 6 kt METAR LFLV 211230Z AUTO 31006KT 190V360 9999 FEW034/// BKN056/// BKN068/// ///CB 24/16 Q1012
14:00
V
24 °C 10 km+ 5.400 ft 300° 300° 7 kt METAR LFLV 211200Z AUTO 30007KT 230V010 9999 FEW035/// SCT045/// BKN054/// ///CB 24/17 Q1012
13:30
V
24 °C 10 km+ 3.400 ft Var Var 4 kt METAR LFLV 211130Z AUTO VRB04KT 9999 FEW027/// BKN034/// BKN052/// ///CB 24/18 Q1012
13:00
V
22 °C 10 km+ 5.800 ft 290° 290° 5 kt METAR LFLV 211100Z AUTO 29005KT 240V350 9999 -RA FEW032/// SCT044/// BKN058/// ///TCU 22/16 Q1012
12:30
V
23 °C 10 km+ 4.200 ft 250° 250° 3 kt METAR LFLV 211030Z AUTO 25003KT 190V310 9999 -RA SCT033/// BKN042/// BKN050/// //////TCU 23/17 Q1012
12:00
V
23 °C 10 km+ 4.000 ft 230° 230° 5 kt METAR LFLV 211000Z AUTO 23005KT 150V280 9999 FEW031/// BKN040/// BKN047/// //////TCU 23/17 Q1012
11:30
M
21 °C 10 km+ 2.600 ft 250° 250° 3 kt METAR LFLV 210930Z AUTO 25003KT 170V320 9999 FEW020 BKN026 BKN036 21/17 Q1011
11:00
V
22 °C 10 km+ 5.800 ft 140° 140° 3 kt METAR LFLV 210900Z AUTO 14003KT 090V210 9999 FEW012 BKN058 22/18 Q1011
10:30
V
20 °C 10 km+ 4.700 ft Var Var 3 kt METAR LFLV 210830Z AUTO VRB03KT 9999 FEW025 OVC047 20/18 Q1011
10:00
V
19 °C 10 km+ 4.300 ft Var Var 2 kt METAR LFLV 210800Z AUTO VRB02KT 9999 FEW026 OVC043 19/17 Q1011
09:30
V
19 °C 10 km+ 4.000 ft Var Var 2 kt METAR LFLV 210730Z AUTO VRB02KT 9999 FEW032 BKN040 OVC047 19/18 Q1011
09:00
V
19 °C 10 km+ 3.700 ft Var Var 2 kt METAR LFLV 210700Z AUTO VRB02KT 9999 BKN037 BKN043 BKN068 19/17 Q1010
08:30
V
18 °C 10 km+ 3.700 ft 200° 200° 3 kt METAR LFLV 210630Z AUTO 20003KT 150V240 9999 FEW028/// BKN037/// BKN043/// //////TCU 18/17 Q1010
08:00
V
18 °C 10 km+ 3.400 ft 210° 210° 4 kt METAR LFLV 210600Z AUTO 21004KT 170V250 9999 BKN034 BKN068 OVC140 18/17 Q1010

2024年7月20日

时间 代码 天气 温度 能见度 天花板 METAR/SPECI
20:00
V
25 °C 10 km+ - 360° 360° 4 kt METAR LFLV 201800Z AUTO 36004KT 300V030 9999 ///CB 25/19 Q1007
19:30
V
26 °C 10 km+ - 010° 010° 5 kt METAR LFLV 201730Z AUTO 01005KT 280V040 CAVOK 26/19 Q1007
19:00
V
0 °C 10 km+ - 020° 020° 4 kt METAR LFLV 201700Z AUTO 02004KT 310V060 9999
18:30
V
24 °C 10 km+ - Var Var 2 kt METAR LFLV 201630Z AUTO VRB02KT 9999 //////CB 24/21 Q1007
18:00
V
24 °C 10 km+ 13.000 ft 060° 060° 3 kt METAR LFLV 201600Z AUTO 06003KT 020V160 9999 VCTS FEW045/// SCT100/// BKN130/// //////CB 24/20 Q1007
17:30
V
24 °C 10 km+ - 220° 220° 9 - 19 kt METAR LFLV 201530Z AUTO 22009G19KT 170V270 9999 -TSRA //////CB 24/19 Q1008
17:00
V
32 °C 10 km+ - 070° 070° 4 kt METAR LFLV 201500Z AUTO 07004KT 040V100 9999 VCTS ///CB 32/17 Q1007
16:30
V
33 °C 10 km+ - 040° 040° 4 kt METAR LFLV 201430Z AUTO 04004KT 330V140 CAVOK 33/18 Q1007
16:00
V
32 °C 10 km+ - Var Var 3 kt METAR LFLV 201400Z AUTO VRB03KT 9999 FEW011 32/18 Q1008
15:30
V
33 °C 10 km+ - 050° 050° 4 kt METAR LFLV 201330Z AUTO 05004KT 360V110 CAVOK 33/19 Q1008
15:00
V
33 °C 10 km+ - Var Var 3 kt METAR LFLV 201300Z AUTO VRB03KT CAVOK 33/17 Q1009
14:30
V
32 °C 10 km+ - 160° 160° 4 kt METAR LFLV 201230Z AUTO 16004KT 100V250 CAVOK 32/18 Q1009
14:00
V
32 °C 10 km+ - 140° 140° 3 kt METAR LFLV 201200Z AUTO 14003KT 060V180 CAVOK 32/17 Q1009
13:30
V
31 °C 10 km+ - 100° 100° 4 kt METAR LFLV 201130Z AUTO 10004KT 050V170 CAVOK 31/19 Q1010
13:00
V
30 °C 10 km+ - 160° 160° 3 kt METAR LFLV 201100Z AUTO 16003KT 060V220 CAVOK 30/20 Q1010
12:30
V
29 °C 10 km+ - Var Var 4 kt METAR LFLV 201030Z AUTO VRB04KT CAVOK 29/19 Q1010
12:00
V
28 °C 10 km+ - Var Var 3 kt METAR LFLV 201000Z AUTO VRB03KT CAVOK 28/20 Q1011
11:30
V
27 °C 10 km+ - Var Var 2 kt METAR LFLV 200930Z AUTO VRB02KT CAVOK 27/21 Q1011
11:00
V
26 °C 10 km+ - 140° 140° 4 kt METAR LFLV 200900Z AUTO 14004KT 100V190 CAVOK 26/21 Q1012
10:30
V
25 °C 10 km+ - 160° 160° 4 kt METAR LFLV 200830Z AUTO 16004KT 110V190 CAVOK 25/20 Q1012
10:00
V
24 °C 10 km+ - 160° 160° 4 kt METAR LFLV 200800Z AUTO 16004KT 130V200 CAVOK 24/20 Q1012
09:30
V
23 °C 10 km+ - 160° 160° 6 kt METAR LFLV 200730Z AUTO 16006KT CAVOK 23/19 Q1013
09:00
V
21 °C 10 km+ - 160° 160° 6 kt METAR LFLV 200700Z AUTO 16006KT 140V200 CAVOK 21/19 Q1013
08:30
V
21 °C 10 km+ - 170° 170° 4 kt METAR LFLV 200630Z AUTO 17004KT CAVOK 21/18 Q1013
08:00
V
19 °C 10 km+ - 170° 170° 4 kt METAR LFLV 200600Z AUTO 17004KT CAVOK 19/18 Q1013
报告变更